Flight Track Log - Related Links

Times and Time Zones

All times are in EDT time to prevent confusion due to time zone crossing. See the UAL4380 flight status page for this flight to view local times or setup timezone preferences in your user account.

Time Position Orientation Groundspeed Altitude Reporting Facility
EDT Latitude Longitude Course Direction KTS MPH feet Rate Location/Type
Thu 09:43:56 AM 29.9661 -95.3456 286° West 142 163 500  Level Houston Center
Thu 09:45:03 AM 29.9256 -95.3842 220° Southwest 221 254 2,500 2,297 Climbing Houston Center
Thu 09:46:04 AM 29.9053 -95.4611 253° West 233 268 5,400 2,656 Climbing Houston Center
Thu 09:47:00 AM 30.0837 -96.1601 282° West  Level FlightAware Approximate
Thu 09:47:05 AM 29.9350 -95.5347 295° West 283 326 7,900  Level Houston Center
Thu 09:48:00 AM 30.1096 -96.3668 279° West  Level FlightAware Approximate
Thu 09:48:14 AM 29.9808 -95.6133 304° West 278 320 9,900  Level Houston Center
Thu 09:49:00 AM 30.1432 -96.5726 286° West  Level FlightAware Approximate
Thu 09:49:16 AM 30.0119 -95.7006 292° West 306 352 10,600  Level Houston Center
Thu 09:50:18 AM 30.0300 -95.8050 281° West 332 382 11,300 1,056 Climbing Houston Center
Thu 09:51:21 AM 30.0503 -95.9353 280° West 345 397 12,800 1,344 Climbing Houston Center
Thu 09:52:23 AM 30.0678 -96.0444 281° West 343 395 14,100 1,210 Climbing Houston Center
Thu 09:53:25 AM 30.0847 -96.1547 280° West 350 403 15,300 1,210 Climbing Houston Center
Thu 09:54:27 AM 30.1028 -96.2644 281° West 350 403 16,600 1,258 Climbing Houston Center
Thu 09:55:29 AM 30.1186 -96.3753 279° West 353 406 17,900 1,355 Climbing Houston Center
Thu 09:56:31 AM 30.1364 -96.4925 280° West 356 410 19,400 1,016 Climbing Houston Center
Thu 09:57:33 AM 30.1575 -96.6289 280° West 364 419 20,000 290 Climbing Houston Center
Thu 09:58:35 AM 30.1769 -96.7533 280° West 383 441 20,000 624 Level Houston Center
Thu 09:59:38 AM 30.1944 -96.8772 279° West 386 444 21,300 960 Climbing Houston Center
Thu 10:00:40 AM 30.2083 -96.9925 278° West 367 422 22,000 339 Climbing Houston Center
Thu 10:01:42 AM 30.2122 -97.1075 272° West 357 411 22,000  Level Houston Center
Thu 10:02:44 AM 30.2189 -97.2239 274° West 356 410 22,000  Level Houston Center
Thu 10:03:46 AM 30.2283 -97.3328 276° West 340 391 22,000  Level Houston Center
Thu 10:04:48 AM 30.2406 -97.4567 277° West 329 379 22,000  Level Houston Center
Thu 10:05:50 AM 30.2517 -97.5628 277° West 329 379 22,000  Level Houston Center
Thu 10:06:52 AM 30.2678 -97.6694 280° West 332 382 22,000  Level Houston Center
Thu 10:07:55 AM 30.2847 -97.7767 280° West 333 383 22,000  Level Houston Center
Thu 10:08:57 AM 30.3200 -97.8872 290° West 340 391 22,000  Level Houston Center
Thu 10:09:59 AM 30.3581 -97.9864 294° West 348 400 22,000  Level Houston Center
Thu 10:11:01 AM 30.4028 -98.0886 297° West 351 404 22,000  Level Houston Center
Thu 10:12:03 AM 30.4508 -98.1889 299° West 351 404 22,000  Level Houston Center
Thu 10:13:05 AM 30.5156 -98.3025 303° West 357 411 22,000  Level Houston Center
Thu 10:14:07 AM 30.6189 -98.3528 337° Northwest 402 463 22,000  Level Houston Center
Thu 10:15:09 AM 30.7231 -98.4014 338° Northwest 400 460 22,000  Level Houston Center
Thu 10:16:12 AM 30.8314 -98.4528 338° Northwest 410 472 22,000  Level Houston Center
Thu 10:17:14 AM 30.9439 -98.5056 338° Northwest 424 488 22,000  Level Houston Center
Thu 10:18:16 AM 31.0547 -98.5569 338° Northwest 424 488 22,000  Level Houston Center
Thu 10:19:18 AM 31.1608 -98.6081 338° Northwest 411 473 22,000  Level Houston Center
Thu 10:20:20 AM 31.2656 -98.6583 338° Northwest 405 466 22,000  Level Houston Center
Thu 10:21:22 AM 31.3925 -98.7192 338° Northwest 414 476 22,000  Level Houston Center
Thu 10:22:24 AM 31.5036 -98.7706 338° Northwest 422 486 22,000  Level Houston Center
Thu 10:23:27 AM 31.6208 -98.8283 337° Northwest 420 483 22,000  Level Fort Worth Center
Thu 10:24:27 AM 31.7331 -98.8692 343° North 420 483 22,000  Level Fort Worth Center
Thu 10:25:27 AM 31.8425 -98.7925 31° Northeast 394 453 22,000  Level Fort Worth Center
Thu 10:26:27 AM 31.8961 -98.6467 67° East 419 482 22,000  Level Fort Worth Center
Thu 10:27:27 AM 31.9456 -98.4981 69° East 460 529 22,000  Level Fort Worth Center
Thu 10:28:27 AM 31.9947 -98.3539 68° East 472 543 22,000 -50 Level Fort Worth Center
Thu 10:29:27 AM 32.0500 -98.2050 66° East 487 560 21,900 -500 Descending Fort Worth Center
Thu 10:30:27 AM 32.0969 -98.0583 69° East 487 560 21,000 -1,300 Descending Fort Worth Center
Thu 10:31:27 AM 32.1456 -97.9189 68° East 469 540 19,300 -2,150 Descending Fort Worth Center
Thu 10:32:27 AM 32.1878 -97.7842 70° East 451 519 16,700 -2,750 Descending Fort Worth Center
Thu 10:33:27 AM 32.2256 -97.6564 71° East 417 480 13,800 -2,300 Descending Fort Worth Center
Thu 10:34:27 AM 32.2656 -97.5339 69° East 405 466 12,100 -900 Descending Fort Worth Center
Thu 10:35:27 AM 32.3261 -97.4453 51° Northeast 356 410 12,000 -400 Descending Fort Worth Center
Thu 10:36:27 AM 32.3803 -97.3544 55° Northeast 343 395 11,300 -850 Descending Fort Worth Center
Thu 10:37:27 AM 32.3803 -97.2486 90° East 311 358 10,300 -1,150 Descending Fort Worth Center
Thu 10:38:27 AM 32.4008 -97.1478 76° East 317 365 9,000 -1,150 Descending Fort Worth Center
Thu 10:39:27 AM 32.4300 -97.0467 71° East 317 365 8,000 -500 Descending Fort Worth Center
Thu 10:40:27 AM 32.4567 -96.9506 72° East 317 365 8,000 -650 Level Fort Worth Center
Thu 10:41:27 AM 32.4836 -96.8519 72° East 312 359 6,700 -1,350 Descending Fort Worth Center
Thu 10:42:27 AM 32.5311 -96.7900 48° Northeast 288 331 5,300 -1,350 Descending Fort Worth Center
Thu 10:43:27 AM 32.5936 -96.7378 35° Northeast 260 299 4,000 -900 Descending Fort Worth Center
Thu 10:44:27 AM 32.6539 -96.7175 16° North 244 281 3,500 -677 Descending Fort Worth Center
Thu 10:45:31 AM 32.7167 -96.7167 North 206 237 2,600 -462 Descending Dallas / Fort Worth TRACON
Thu 10:46:37 AM 32.7667 -96.7667 320° Northwest 170 196 2,500 -91 Descending Dallas / Fort Worth TRACON

Login

Don't have an account? Register now (free) for customized features, flight alerts, and more!